Time;durP1;ratioP1;P1;durP2;ratioP2;P2;SDS_P1;SDS_P2;PMS_P1;PMS_P2;Temp;Humidity;BMP_temperature;BMP_pressure;BME280_temperature;BME280_humidity;BME280_pressure;Samples;Min_cycle;Max_cycle;Signal;HPM_P1;HPM_P2
2021/03/16 00:02:20;;;;;;;7.47;4.28;;;7.50;96.00;;;;;;5055516;28;20487;-73
2021/03/16 00:04:46;;;;;;;7.68;4.75;;;7.50;96.00;;;;;;5047014;28;20025;-73
2021/03/16 00:07:12;;;;;;;5.55;3.63;;;7.50;96.00;;;;;;5046024;28;20492;-74
2021/03/16 00:09:37;;;;;;;5.90;3.70;;;7.50;96.00;;;;;;5049839;28;20031;-73
2021/03/16 00:12:04;;;;;;;6.75;3.85;;;7.60;96.10;;;;;;5049133;28;20064;-73
2021/03/16 00:14:30;;;;;;;5.55;3.03;;;7.60;96.20;;;;;;5048530;28;20053;-73
2021/03/16 00:16:56;;;;;;;6.43;3.50;;;7.60;96.20;;;;;;5047362;28;20032;-73
2021/03/16 00:19:21;;;;;;;4.65;2.75;;;7.60;96.10;;;;;;5056867;28;20093;-74
2021/03/16 00:21:47;;;;;;;4.82;3.80;;;7.60;96.30;;;;;;5050104;28;20059;-74
2021/03/16 00:24:13;;;;;;;5.45;3.08;;;7.50;96.20;;;;;;5048055;28;20099;-73
2021/03/16 00:26:38;;;;;;;4.88;3.55;;;7.50;96.40;;;;;;5051411;28;20017;-73
2021/03/16 00:29:05;;;;;;;4.38;3.30;;;7.50;96.30;;;;;;5052515;28;20082;-73
2021/03/16 00:31:30;;;;;;;4.95;3.53;;;7.50;96.30;;;;;;5048269;28;20044;-73
2021/03/16 00:33:56;;;;;;;4.60;3.30;;;7.40;96.20;;;;;;5055581;28;20052;-72
2021/03/16 00:36:21;;;;;;;5.22;3.47;;;7.50;96.20;;;;;;5051881;28;20041;-73
2021/03/16 00:38:48;;;;;;;5.35;2.88;;;7.50;96.20;;;;;;5059967;28;20416;-72
2021/03/16 00:41:13;;;;;;;5.63;3.40;;;7.50;96.30;;;;;;5050814;28;20043;-73
2021/03/16 00:43:39;;;;;;;5.38;3.55;;;7.40;96.40;;;;;;5060284;28;20037;-72
2021/03/16 00:46:05;;;;;;;5.80;3.90;;;7.40;96.40;;;;;;5053713;28;20042;-72
2021/03/16 00:48:30;;;;;;;6.32;4.53;;;7.30;96.50;;;;;;5055054;28;20104;-72
2021/03/16 00:50:56;;;;;;;6.35;3.80;;;7.30;96.70;;;;;;5047564;28;20029;-73
2021/03/16 00:53:22;;;;;;;5.15;3.42;;;7.30;96.70;;;;;;5053151;28;20537;-72
2021/03/16 00:55:47;;;;;;;5.82;4.00;;;7.30;96.70;;;;;;5047520;28;20057;-71
2021/03/16 00:58:13;;;;;;;4.35;3.22;;;7.30;96.70;;;;;;5054971;28;20056;-72
2021/03/16 01:00:41;;;;;;;6.00;3.72;;;7.30;96.60;;;;;;5051639;28;20040;-71
2021/03/16 01:03:06;;;;;;;6.00;4.07;;;7.30;96.70;;;;;;5053449;28;20032;-71
2021/03/16 01:05:35;;;;;;;5.65;3.45;;;7.30;96.70;;;;;;5047521;28;20024;-71
2021/03/16 01:08:00;;;;;;;5.95;4.38;;;7.30;96.70;;;;;;5053730;28;20024;-71
2021/03/16 01:10:28;;;;;;;5.68;4.13;;;7.30;96.70;;;;;;5047303;28;20116;-72
2021/03/16 01:12:53;;;;;;;4.90;3.72;;;7.30;96.90;;;;;;5048160;28;20126;-71
2021/03/16 01:15:19;;;;;;;6.18;3.90;;;7.30;96.80;;;;;;5053874;28;20120;-71
2021/03/16 01:17:44;;;;;;;5.88;4.30;;;7.20;96.80;;;;;;5049156;28;20087;-71
2021/03/16 01:20:22;;;;;;;6.50;4.00;;;7.30;96.70;;;;;;5052499;28;20055;-71
2021/03/16 01:22:47;;;;;;;6.18;4.03;;;7.20;96.70;;;;;;5047272;28;20033;-71
2021/03/16 01:25:13;;;;;;;6.45;3.90;;;7.30;96.70;;;;;;5049549;28;20059;-71
2021/03/16 01:27:39;;;;;;;6.57;3.88;;;7.30;96.70;;;;;;5046262;28;20078;-71
2021/03/16 01:30:06;;;;;;;8.05;4.50;;;7.30;96.70;;;;;;5051053;28;20028;-71
2021/03/16 01:32:31;;;;;;;5.32;3.88;;;7.30;96.70;;;;;;5048067;28;20055;-71
2021/03/16 01:34:57;;;;;;;7.15;3.85;;;7.30;96.70;;;;;;5046305;28;20017;-71
2021/03/16 01:37:22;;;;;;;6.85;3.90;;;7.30;96.80;;;;;;5054941;28;20494;-72
2021/03/16 01:39:48;;;;;;;6.18;4.05;;;7.40;96.70;;;;;;5050028;28;20029;-71
2021/03/16 01:42:15;;;;;;;8.10;4.65;;;7.40;96.80;;;;;;5042985;28;20067;-71
2021/03/16 01:44:43;;;;;;;9.85;4.85;;;7.40;96.70;;;;;;5049019;28;20034;-71
2021/03/16 01:47:11;;;;;;;9.13;4.35;;;7.30;96.90;;;;;;5045417;28;20449;-71
2021/03/16 01:49:38;;;;;;;8.23;4.97;;;7.30;96.90;;;;;;5048124;28;20075;-71
2021/03/16 01:52:04;;;;;;;8.02;5.28;;;7.30;96.90;;;;;;5041399;28;20033;-71
2021/03/16 01:54:30;;;;;;;10.32;5.13;;;7.20;97.00;;;;;;5055587;28;20033;-71
2021/03/16 01:56:57;;;;;;;9.98;5.15;;;7.10;97.00;;;;;;5049547;28;20053;-71
2021/03/16 01:59:24;;;;;;;6.78;5.10;;;7.10;97.00;;;;;;5055581;28;20060;-71
2021/03/16 02:01:50;;;;;;;9.50;4.82;;;7.10;97.20;;;;;;5053482;28;20066;-71
2021/03/16 02:04:15;;;;;;;8.25;4.85;;;7.10;97.00;;;;;;5048487;28;20038;-72
2021/03/16 02:06:48;;;;;;;7.40;4.82;;;7.20;97.10;;;;;;5054543;28;20040;-71
2021/03/16 02:09:42;;;;;;;8.70;5.68;;;7.20;97.00;;;;;;5047262;28;20694;-71
2021/03/16 02:12:30;;;;;;;9.77;4.70;;;7.20;96.90;;;;;;5045202;28;20017;-71
2021/03/16 02:15:05;;;;;;;11.73;5.25;;;7.10;96.80;;;;;;5049363;28;20033;-71
2021/03/16 02:17:35;;;;;;;8.57;5.13;;;7.20;96.70;;;;;;5049607;28;20047;-71
2021/03/16 02:20:34;;;;;;;6.88;4.65;;;7.10;96.70;;;;;;5052746;28;20032;-71
2021/03/16 02:23:03;;;;;;;10.38;4.90;;;7.10;96.70;;;;;;5050487;28;20021;-71
2021/03/16 02:25:38;;;;;;;6.90;4.60;;;7.00;96.70;;;;;;5045400;28;20037;-71
2021/03/16 02:28:12;;;;;;;6.28;3.30;;;6.90;96.70;;;;;;5054739;28;20029;-71
2021/03/16 02:30:41;;;;;;;;;;;6.90;96.80;;;;;;5057935;28;20032;-72
2021/03/16 02:33:11;;;;;;;8.77;5.00;;;6.90;96.70;;;;;;5047800;28;19916;-70
2021/03/16 02:35:38;;;;;;;7.53;4.65;;;6.80;96.70;;;;;;5050636;28;20064;-70
2021/03/16 02:38:05;;;;;;;9.45;4.80;;;6.90;96.70;;;;;;5051718;28;20481;-70
2021/03/16 02:40:33;;;;;;;7.75;4.38;;;6.90;96.60;;;;;;5051583;28;21948;-70
2021/03/16 02:43:01;;;;;;;7.35;4.25;;;6.90;96.60;;;;;;5052172;28;20388;-70
2021/03/16 02:45:27;;;;;;;5.90;3.78;;;6.90;96.50;;;;;;5052158;28;20039;-70
2021/03/16 02:47:54;;;;;;;6.30;4.07;;;6.90;96.30;;;;;;5049098;28;20112;-70
2021/03/16 02:50:19;;;;;;;6.72;4.28;;;6.90;96.30;;;;;;5056797;28;20032;-70
2021/03/16 02:52:45;;;;;;;4.38;3.42;;;6.90;96.40;;;;;;5057683;28;20021;-71
2021/03/16 02:55:11;;;;;;;7.68;3.88;;;6.80;96.20;;;;;;5054336;28;20075;-71
2021/03/16 02:57:39;;;;;;;5.35;3.97;;;6.80;96.30;;;;;;5047780;28;20059;-71
2021/03/16 03:00:05;;;;;;;5.13;3.58;;;6.80;96.30;;;;;;5051041;28;22496;-71
2021/03/16 03:02:31;;;;;;;6.15;3.88;;;6.80;96.10;;;;;;5056479;28;20033;-71
2021/03/16 03:04:58;;;;;;;8.10;4.25;;;6.90;96.20;;;;;;5054576;28;20488;-71
2021/03/16 03:07:24;;;;;;;5.75;3.45;;;6.90;96.20;;;;;;5052692;28;20043;-71
2021/03/16 03:09:50;;;;;;;9.15;4.40;;;6.90;96.30;;;;;;5071824;28;20047;-71
2021/03/16 03:12:16;;;;;;;6.72;4.13;;;6.90;96.00;;;;;;5051236;28;20032;-71
2021/03/16 03:14:41;;;;;;;5.60;3.65;;;6.80;95.90;;;;;;5049790;28;20166;-71
2021/03/16 03:17:08;;;;;;;6.95;3.60;;;6.90;96.00;;;;;;5052171;28;20052;-71
2021/03/16 03:19:34;;;;;;;5.38;3.78;;;6.90;96.00;;;;;;5050725;28;20075;-71
2021/03/16 03:22:25;;;;;;;7.50;5.03;;;6.80;95.80;;;;;;5053705;28;20059;-71
2021/03/16 03:25:00;;;;;;;5.97;3.58;;;6.80;95.90;;;;;;5052987;28;20040;-71
2021/03/16 03:27:33;;;;;;;7.10;3.97;;;6.70;95.90;;;;;;5059005;28;20029;-72
2021/03/16 03:30:03;;;;;;;6.82;5.05;;;6.70;95.80;;;;;;5056276;28;20028;-72
2021/03/16 03:32:31;;;;;;;5.72;4.18;;;6.70;95.90;;;;;;5051776;28;20102;-72
2021/03/16 03:35:00;;;;;;;6.63;3.90;;;6.70;95.80;;;;;;5048020;28;20057;-73
2021/03/16 03:37:27;;;;;;;4.45;3.30;;;6.70;96.00;;;;;;5055978;28;20517;-72
2021/03/16 03:39:53;;;;;;;6.93;3.53;;;6.70;95.90;;;;;;5052933;28;20052;-72
2021/03/16 03:42:20;;;;;;;5.85;3.55;;;6.70;95.90;;;;;;5053178;28;20035;-72
2021/03/16 03:44:51;;;;;;;5.50;3.75;;;6.70;95.90;;;;;;5055121;28;20020;-72
2021/03/16 03:47:18;;;;;;;5.53;3.72;;;6.80;95.80;;;;;;5066059;28;20109;-72
2021/03/16 03:49:44;;;;;;;5.90;3.30;;;6.70;95.80;;;;;;5048755;28;20079;-72
2021/03/16 03:52:13;;;;;;;6.63;3.40;;;6.70;95.60;;;;;;5054057;28;20473;-73
2021/03/16 03:54:44;;;;;;;5.65;3.55;;;6.70;95.70;;;;;;5051006;28;20021;-73
2021/03/16 03:57:10;;;;;;;6.57;3.72;;;6.60;95.60;;;;;;5051349;28;20527;-73
2021/03/16 03:59:40;;;;;;;6.55;2.92;;;6.60;95.70;;;;;;5051191;28;20095;-73
2021/03/16 04:02:06;;;;;;;7.10;3.28;;;6.60;95.70;;;;;;5060361;28;20181;-73
2021/03/16 04:04:32;;;;;;;4.30;3.17;;;6.60;95.50;;;;;;5053624;28;20021;-73
2021/03/16 04:06:58;;;;;;;7.82;3.67;;;6.50;95.50;;;;;;5054177;28;20481;-73
2021/03/16 04:09:24;;;;;;;5.85;3.40;;;6.60;95.60;;;;;;5053108;28;20017;-73
2021/03/16 04:11:50;;;;;;;5.47;3.33;;;6.60;95.50;;;;;;5051993;28;20039;-73
2021/03/16 04:14:16;;;;;;;6.35;3.78;;;6.60;95.60;;;;;;5054760;28;20059;-73
2021/03/16 04:16:42;;;;;;;4.60;2.70;;;6.60;95.50;;;;;;5050347;28;20498;-73
2021/03/16 04:19:08;;;;;;;7.82;3.88;;;6.70;95.50;;;;;;5052403;28;20033;-73
2021/03/16 04:21:35;;;;;;;4.53;3.15;;;6.60;95.30;;;;;;5053704;28;20438;-73
2021/03/16 04:24:01;;;;;;;7.75;3.08;;;6.60;95.40;;;;;;5052146;28;20485;-73
2021/03/16 04:26:27;;;;;;;8.55;3.25;;;6.70;95.30;;;;;;5055761;28;20032;-72
2021/03/16 04:28:52;;;;;;;6.03;3.05;;;6.70;95.20;;;;;;5056065;28;20036;-72
2021/03/16 04:31:18;;;;;;;6.28;3.10;;;6.60;95.10;;;;;;5055080;28;20035;-72
2021/03/16 04:33:43;;;;;;;5.18;3.03;;;6.60;95.20;;;;;;5049157;28;20044;-72
2021/03/16 04:36:09;;;;;;;6.00;3.03;;;6.70;95.10;;;;;;5048487;28;20024;-72
2021/03/16 04:38:34;;;;;;;8.48;3.30;;;6.70;95.10;;;;;;5048456;28;20393;-72
2021/03/16 04:41:00;;;;;;;6.05;3.03;;;6.70;95.00;;;;;;5048855;28;20436;-71
2021/03/16 04:43:25;;;;;;;6.88;3.20;;;6.70;95.00;;;;;;5047376;28;20033;-70
2021/03/16 04:45:51;;;;;;;7.88;3.67;;;6.70;95.00;;;;;;5050114;28;20047;-72
2021/03/16 04:48:16;;;;;;;6.10;3.28;;;6.70;94.80;;;;;;5056303;28;20051;-72
2021/03/16 04:50:41;;;;;;;6.95;3.40;;;6.70;95.00;;;;;;5047710;28;20032;-72
2021/03/16 04:53:07;;;;;;;5.30;3.13;;;6.70;95.00;;;;;;5052808;28;20028;-71
2021/03/16 04:55:34;;;;;;;6.28;3.40;;;6.70;94.90;;;;;;5050367;28;20021;-71
2021/03/16 04:58:00;;;;;;;7.38;3.78;;;6.70;94.80;;;;;;5052718;28;20061;-72
2021/03/16 05:00:25;;;;;;;4.40;3.40;;;6.60;94.70;;;;;;5049587;28;20435;-71
2021/03/16 05:02:51;;;;;;;5.43;3.05;;;6.60;94.80;;;;;;5055557;28;20119;-72
2021/03/16 05:05:16;;;;;;;6.88;3.30;;;6.60;94.80;;;;;;5052471;28;20074;-72
2021/03/16 05:07:42;;;;;;;5.60;3.50;;;6.60;94.80;;;;;;5051243;28;20493;-71
2021/03/16 05:10:08;;;;;;;10.88;3.67;;;6.60;94.80;;;;;;5047896;28;20021;-71
2021/03/16 05:12:33;;;;;;;7.18;3.67;;;6.60;94.70;;;;;;5046651;28;20033;-71
2021/03/16 05:14:59;;;;;;;11.18;4.18;;;6.70;94.50;;;;;;5051105;28;20032;-71
2021/03/16 05:17:24;;;;;;;8.63;3.63;;;6.60;94.60;;;;;;5055413;28;20502;-71
2021/03/16 05:19:50;;;;;;;7.55;3.55;;;6.50;94.60;;;;;;5047427;28;20029;-71
2021/03/16 05:22:16;;;;;;;5.40;3.03;;;6.60;94.60;;;;;;5047024;28;20108;-71
2021/03/16 05:24:41;;;;;;;7.65;3.17;;;6.50;94.40;;;;;;5050627;28;20074;-69
2021/03/16 05:27:07;;;;;;;5.50;2.83;;;6.50;94.50;;;;;;5053749;28;20028;-69
2021/03/16 05:29:33;;;;;;;5.22;3.10;;;6.50;94.50;;;;;;5049184;28;20048;-69
2021/03/16 05:31:58;;;;;;;6.30;3.05;;;6.50;94.50;;;;;;5052677;28;20111;-69
2021/03/16 05:34:24;;;;;;;7.63;3.22;;;6.60;94.40;;;;;;5052577;28;20542;-69
2021/03/16 05:36:49;;;;;;;6.07;2.67;;;6.60;94.40;;;;;;5050801;28;20056;-69
2021/03/16 05:39:15;;;;;;;4.28;3.03;;;6.60;94.40;;;;;;5046168;28;20086;-70
2021/03/16 05:41:41;;;;;;;5.43;3.15;;;6.60;94.30;;;;;;5056694;28;20530;-70
2021/03/16 05:44:10;;;;;;;6.25;3.03;;;6.60;93.60;;;;;;5055096;28;20036;-70
2021/03/16 05:46:36;;;;;;;3.75;2.40;;;6.50;93.30;;;;;;5047393;28;20028;-70
2021/03/16 05:49:07;;;;;;;6.28;2.78;;;6.40;93.00;;;;;;5049997;28;20406;-70
2021/03/16 05:51:37;;;;;;;5.38;2.55;;;6.40;92.90;;;;;;5049131;28;20052;-71
2021/03/16 05:54:04;;;;;;;6.97;2.25;;;6.30;92.70;;;;;;5047577;28;20370;-70
2021/03/16 05:56:31;;;;;;;4.63;2.05;;;6.30;92.30;;;;;;5053269;28;20036;-70
2021/03/16 05:58:57;;;;;;;3.95;2.00;;;6.30;92.60;;;;;;5051046;28;20099;-70
2021/03/16 06:01:23;;;;;;;4.70;2.05;;;6.30;92.80;;;;;;5052106;28;20039;-70
2021/03/16 06:03:48;;;;;;;5.97;2.65;;;6.40;92.90;;;;;;5055780;28;20029;-71
2021/03/16 06:06:15;;;;;;;4.90;2.40;;;6.40;92.70;;;;;;5055025;28;20435;-70
2021/03/16 06:08:41;;;;;;;4.72;2.28;;;6.30;92.70;;;;;;5047965;28;20036;-70
2021/03/16 06:11:07;;;;;;;8.23;2.50;;;6.40;92.90;;;;;;5058001;28;20548;-71
2021/03/16 06:13:34;;;;;;;5.78;2.70;;;6.30;93.00;;;;;;5056735;28;20032;-71
2021/03/16 06:16:00;;;;;;;5.00;2.60;;;6.40;92.80;;;;;;5059908;28;20036;-71
2021/03/16 06:18:27;;;;;;;3.45;2.30;;;6.40;92.70;;;;;;5054991;28;20128;-71
2021/03/16 06:21:00;;;;;;;8.45;2.67;;;6.40;92.80;;;;;;5050357;28;20055;-70
2021/03/16 06:23:33;;;;;;;7.28;3.20;;;6.40;92.90;;;;;;5051969;28;20037;-70
2021/03/16 06:25:59;;;;;;;7.03;3.00;;;6.40;93.00;;;;;;5054397;28;20082;-70
2021/03/16 06:28:33;;;;;;;5.25;3.30;;;6.40;92.70;;;;;;5061680;28;20025;-71
2021/03/16 06:30:59;;;;;;;8.70;3.85;;;6.40;93.10;;;;;;5052082;28;20929;-70
2021/03/16 06:33:27;;;;;;;8.00;3.28;;;6.50;93.10;;;;;;5054896;28;20693;-71
2021/03/16 06:35:56;;;;;;;7.90;3.17;;;6.60;93.10;;;;;;5054213;28;20026;-70
2021/03/16 06:38:22;;;;;;;6.80;3.42;;;6.60;93.10;;;;;;5051613;28;20041;-70
2021/03/16 06:40:47;;;;;;;11.20;3.83;;;6.70;92.80;;;;;;5050093;28;20029;-71
2021/03/16 06:43:13;;;;;;;6.07;3.13;;;6.60;92.80;;;;;;5052405;28;20033;-70
2021/03/16 06:45:40;;;;;;;5.93;3.70;;;6.60;92.90;;;;;;5050338;28;20380;-70
2021/03/16 06:48:24;;;;;;;8.48;3.55;;;6.60;92.90;;;;;;5053208;28;20461;-69
2021/03/16 06:50:51;;;;;;;5.57;2.95;;;6.70;92.90;;;;;;5050307;28;20485;-70
2021/03/16 06:53:20;;;;;;;5.95;3.72;;;6.70;92.80;;;;;;5047660;28;20051;-70
2021/03/16 06:55:56;;;;;;;7.65;3.70;;;6.60;92.40;;;;;;5057926;28;20036;-70
2021/03/16 06:58:27;;;;;;;9.23;3.58;;;6.60;92.40;;;;;;5054131;28;20044;-70
2021/03/16 07:01:05;;;;;;;6.43;3.50;;;6.60;92.30;;;;;;5052491;28;20476;-70
2021/03/16 07:03:31;;;;;;;5.28;3.55;;;6.60;92.10;;;;;;5051851;28;22463;-70
2021/03/16 07:06:14;;;;;;;5.05;3.42;;;6.60;92.20;;;;;;5047818;28;20691;-73
2021/03/16 07:08:41;;;;;;;6.85;3.13;;;6.60;92.50;;;;;;5050272;28;20056;-73
2021/03/16 07:11:10;;;;;;;8.25;3.90;;;6.60;92.40;;;;;;5053001;28;20021;-74
2021/03/16 07:13:36;;;;;;;7.15;3.72;;;6.60;92.30;;;;;;5050770;28;20136;-72
2021/03/16 07:16:03;;;;;;;10.50;4.30;;;6.60;92.30;;;;;;5050993;28;20029;-74
2021/03/16 07:18:33;;;;;;;9.70;4.07;;;6.60;92.20;;;;;;5048576;28;20045;-70
2021/03/16 07:21:06;;;;;;;7.85;3.45;;;6.70;92.30;;;;;;5054473;28;20393;-70
2021/03/16 07:23:44;;;;;;;7.40;3.20;;;6.70;92.20;;;;;;5048983;28;20171;-71
2021/03/16 07:26:11;;;;;;;7.43;3.88;;;6.70;91.90;;;;;;5051708;28;20063;-71
2021/03/16 07:28:37;;;;;;;7.43;3.80;;;6.70;91.50;;;;;;5053685;28;20036;-71
2021/03/16 07:31:03;;;;;;;7.50;3.40;;;6.70;91.80;;;;;;5047648;28;20482;-71
2021/03/16 07:33:29;;;;;;;6.18;3.40;;;6.70;91.60;;;;;;5056307;28;20107;-71
2021/03/16 07:35:56;;;;;;;7.00;3.40;;;6.80;91.70;;;;;;5052203;28;20132;-71
2021/03/16 07:38:23;;;;;;;6.05;3.08;;;6.90;91.70;;;;;;5053255;28;20048;-73
2021/03/16 07:40:51;;;;;;;5.13;2.63;;;6.90;91.40;;;;;;5053983;28;20017;-73
2021/03/16 07:43:16;;;;;;;6.55;3.60;;;6.90;90.30;;;;;;5049607;28;20037;-73
2021/03/16 07:45:42;;;;;;;5.40;3.30;;;6.90;90.70;;;;;;5055523;28;20065;-73
2021/03/16 07:48:19;;;;;;;5.88;3.00;;;6.90;90.20;;;;;;5054537;28;20029;-72
2021/03/16 07:50:45;;;;;;;9.00;3.38;;;6.90;90.20;;;;;;5048886;28;20025;-74
2021/03/16 07:53:10;;;;;;;8.18;2.88;;;6.80;90.10;;;;;;5043425;28;20037;-70
2021/03/16 07:55:36;;;;;;;7.30;2.90;;;6.90;90.70;;;;;;5043801;28;20507;-70
2021/03/16 07:58:10;;;;;;;3.72;2.60;;;7.00;90.70;;;;;;5054132;28;20136;-70
2021/03/16 08:00:36;;;;;;;6.85;3.40;;;7.10;90.80;;;;;;5055992;28;20031;-68
2021/03/16 08:03:06;;;;;;;6.88;3.75;;;7.20;90.80;;;;;;5048258;28;20120;-69
2021/03/16 08:05:43;;;;;;;7.03;3.50;;;7.20;90.90;;;;;;5047594;28;20021;-72
2021/03/16 08:08:20;;;;;;;8.82;3.75;;;7.30;90.90;;;;;;5048301;28;20028;-69
2021/03/16 08:10:47;;;;;;;5.53;3.33;;;7.40;90.80;;;;;;5059385;28;20115;-69
2021/03/16 08:13:14;;;;;;;9.45;3.53;;;7.40;90.90;;;;;;5050879;28;20048;-68
2021/03/16 08:15:41;;;;;;;6.93;3.25;;;7.50;90.90;;;;;;5052982;28;20103;-68
2021/03/16 08:18:07;;;;;;;6.53;2.63;;;7.50;90.60;;;;;;5052951;28;20504;-68
2021/03/16 08:20:33;;;;;;;7.10;2.90;;;7.50;90.10;;;;;;5059248;28;20031;-69
2021/03/16 08:23:04;;;;;;;6.95;3.08;;;7.30;89.90;;;;;;5053019;28;20029;-68
2021/03/16 08:25:30;;;;;;;7.22;2.97;;;7.30;90.40;;;;;;5057878;28;20382;-69
2021/03/16 08:27:56;;;;;;;6.70;3.20;;;7.30;90.40;;;;;;5040738;28;20049;-69
2021/03/16 08:30:21;;;;;;;6.28;3.13;;;7.40;90.50;;;;;;5056115;28;20025;-69
2021/03/16 08:32:48;;;;;;;7.88;3.50;;;7.40;90.50;;;;;;5049938;28;20036;-69
2021/03/16 08:35:20;;;;;;;6.75;2.72;;;7.40;90.20;;;;;;5048001;28;20112;-68
2021/03/16 08:37:51;;;;;;;6.95;3.33;;;7.40;90.00;;;;;;5047506;28;20036;-70
2021/03/16 08:40:23;;;;;;;6.75;3.25;;;7.40;89.50;;;;;;5044863;28;20024;-69
2021/03/16 08:42:49;;;;;;;5.63;2.75;;;7.40;89.70;;;;;;5044920;28;20071;-69
2021/03/16 08:45:15;;;;;;;5.07;2.72;;;7.40;88.90;;;;;;5055843;28;20056;-69
2021/03/16 08:47:41;;;;;;;9.07;3.42;;;7.40;88.90;;;;;;5048929;28;20036;-69
2021/03/16 08:50:07;;;;;;;5.82;3.10;;;7.40;88.90;;;;;;5051011;28;20094;-69
2021/03/16 08:52:32;;;;;;;7.20;2.95;;;7.50;88.70;;;;;;5048152;28;20029;-71
2021/03/16 08:55:00;;;;;;;6.03;2.80;;;7.40;88.30;;;;;;5064483;28;20567;-68
2021/03/16 08:57:29;;;;;;;6.90;3.13;;;7.40;88.90;;;;;;5049667;28;20136;-68
2021/03/16 08:59:57;;;;;;;9.80;3.53;;;7.50;89.60;;;;;;5041268;28;20029;-68
2021/03/16 09:02:34;;;;;;;5.50;2.92;;;7.60;89.30;;;;;;5044667;28;20021;-70
2021/03/16 09:05:01;;;;;;;4.68;3.00;;;7.70;89.50;;;;;;5045629;28;20040;-71
2021/03/16 09:07:36;;;;;;;7.68;3.15;;;7.80;89.50;;;;;;5045677;28;20033;-71
2021/03/16 09:10:07;;;;;;;6.40;2.78;;;7.90;88.60;;;;;;5044986;28;20089;-72
2021/03/16 09:12:35;;;;;;;7.40;3.15;;;8.00;88.50;;;;;;5049306;28;20116;-71
2021/03/16 09:15:08;;;;;;;8.07;2.92;;;8.00;87.60;;;;;;5041648;28;20088;-70
2021/03/16 09:17:35;;;;;;;6.15;2.67;;;8.00;87.70;;;;;;5043775;28;20037;-70
2021/03/16 09:20:24;;;;;;;8.60;3.28;;;8.00;88.00;;;;;;5051689;28;20055;-69
2021/03/16 09:22:58;;;;;;;6.80;3.10;;;8.10;88.00;;;;;;5046363;28;20040;-71
2021/03/16 09:25:32;;;;;;;9.95;3.28;;;8.10;87.80;;;;;;5045730;28;20029;-70
2021/03/16 09:28:01;;;;;;;7.13;2.92;;;8.20;87.50;;;;;;5045421;28;20066;-70
2021/03/16 09:30:29;;;;;;;7.07;3.40;;;8.20;87.20;;;;;;5044772;28;20028;-71
2021/03/16 09:32:56;;;;;;;12.27;5.05;;;8.20;85.40;;;;;;5047662;28;20032;-70
2021/03/16 09:35:22;;;;;;;7.30;3.60;;;8.30;86.00;;;;;;5050984;28;20041;-70
2021/03/16 09:37:50;;;;;;;7.63;2.78;;;8.30;86.20;;;;;;5050694;28;20028;-69
2021/03/16 09:40:35;;;;;;;8.10;2.95;;;8.40;86.10;;;;;;5051074;28;20036;-70
2021/03/16 09:43:02;;;;;;;6.63;2.90;;;8.50;85.10;;;;;;5035960;28;20100;-70
2021/03/16 09:45:30;;;;;;;5.47;2.90;;;8.50;84.50;;;;;;5051118;28;20035;-70
2021/03/16 09:47:58;;;;;;;3.60;2.35;;;8.50;84.50;;;;;;5051415;28;20041;-70
2021/03/16 09:50:35;;;;;;;6.13;2.65;;;8.60;83.90;;;;;;5046744;28;20109;-70
2021/03/16 09:53:06;;;;;;;5.00;2.20;;;8.60;82.30;;;;;;5050431;28;20025;-70
2021/03/16 09:55:33;;;;;;;4.47;2.60;;;8.60;83.10;;;;;;5051012;28;20500;-70
2021/03/16 09:57:59;;;;;;;7.28;2.60;;;8.60;82.70;;;;;;5050832;28;20118;-70
2021/03/16 10:00:28;;;;;;;7.18;3.08;;;8.70;82.90;;;;;;5050131;28;20102;-68
2021/03/16 10:03:05;;;;;;;6.93;3.22;;;8.80;82.20;;;;;;5051203;28;20112;-71
2021/03/16 10:05:31;;;;;;;6.70;2.90;;;8.80;81.90;;;;;;5048775;28;20032;-68
2021/03/16 10:07:56;;;;;;;5.65;2.72;;;8.80;81.30;;;;;;5049996;28;20021;-68
2021/03/16 10:10:24;;;;;;;3.58;2.15;;;8.80;81.10;;;;;;5050218;28;20036;-68
2021/03/16 10:12:54;;;;;;;6.05;2.83;;;8.90;79.60;;;;;;5050232;28;20021;-69
2021/03/16 10:15:33;;;;;;;8.07;2.85;;;8.90;79.30;;;;;;5049575;28;20036;-67
2021/03/16 10:18:01;;;;;;;3.72;2.33;;;8.90;79.90;;;;;;5045563;28;20033;-68
2021/03/16 10:20:38;;;;;;;4.85;2.42;;;9.00;79.80;;;;;;5051097;28;20029;-68
2021/03/16 10:23:20;;;;;;;2.95;1.90;;;9.00;78.40;;;;;;5051865;28;20017;-70
2021/03/16 10:25:54;;;;;;;3.42;2.17;;;9.00;78.60;;;;;;5050926;28;20033;-69
2021/03/16 10:28:40;;;;;;;6.80;2.28;;;9.00;77.60;;;;;;5050737;28;20029;-72
2021/03/16 10:31:14;;;;;;;6.22;2.33;;;9.00;78.30;;;;;;5048187;28;20037;-69
2021/03/16 10:33:39;;;;;;;5.85;2.28;;;9.00;77.80;;;;;;5038498;28;20033;-69
2021/03/16 10:36:06;;;;;;;5.10;2.25;;;9.00;77.80;;;;;;5063396;28;20025;-73
2021/03/16 10:38:32;;;;;;;4.78;2.78;;;9.00;78.00;;;;;;5048953;28;20044;-73
2021/03/16 10:40:57;;;;;;;5.78;2.35;;;9.10;77.40;;;;;;5050653;28;20021;-72
2021/03/16 10:43:23;;;;;;;4.93;2.20;;;9.10;77.70;;;;;;5050356;28;20052;-72
2021/03/16 10:45:48;;;;;;;4.63;2.20;;;9.10;77.70;;;;;;5050888;28;20068;-73
2021/03/16 10:48:14;;;;;;;7.68;2.13;;;9.10;77.70;;;;;;5051013;28;20104;-72
2021/03/16 10:50:39;;;;;;;4.47;2.17;;;9.10;76.80;;;;;;5048584;28;20017;-75
2021/03/16 10:53:05;;;;;;;4.00;2.15;;;9.20;76.20;;;;;;5053450;28;20025;-73
2021/03/16 10:55:30;;;;;;;3.92;2.13;;;9.20;76.60;;;;;;5054356;28;20025;-73
2021/03/16 10:57:56;;;;;;;5.78;2.38;;;9.30;76.70;;;;;;5050226;28;20057;-73
2021/03/16 11:00:22;;;;;;;5.32;2.10;;;9.40;76.60;;;;;;5050539;28;20390;-74
2021/03/16 11:02:47;;;;;;;5.00;2.33;;;9.40;76.00;;;;;;5050518;28;20025;-77
2021/03/16 11:05:13;;;;;;;3.00;1.80;;;9.50;73.20;;;;;;5046473;28;20033;-73
2021/03/16 11:07:38;;;;;;;6.25;2.88;;;9.50;73.40;;;;;;5047526;28;20043;-76
2021/03/16 11:10:05;;;;;;;5.60;2.13;;;9.50;73.00;;;;;;5045611;28;20063;-71
2021/03/16 11:12:30;;;;;;;6.18;2.00;;;9.70;73.30;;;;;;5046870;28;20040;-74
2021/03/16 11:14:56;;;;;;;4.70;2.10;;;9.70;72.00;;;;;;5057883;28;20393;-75
2021/03/16 11:17:21;;;;;;;2.92;1.77;;;9.80;71.50;;;;;;5050005;28;20132;-74
2021/03/16 11:19:47;;;;;;;2.70;1.67;;;9.90;70.70;;;;;;5051889;28;20021;-80
2021/03/16 11:22:12;;;;;;;3.60;2.03;;;9.90;71.60;;;;;;5048007;28;20033;-77
2021/03/16 11:24:38;;;;;;;3.85;1.92;;;9.90;71.50;;;;;;5046659;28;20029;-77
2021/03/16 11:27:04;;;;;;;3.47;2.20;;;10.00;70.90;;;;;;5046504;28;20024;-73
2021/03/16 11:29:29;;;;;;;3.72;1.70;;;10.10;72.30;;;;;;5039663;28;20437;-75
2021/03/16 11:31:55;;;;;;;5.00;2.20;;;10.30;72.10;;;;;;5035806;28;20493;-75
2021/03/16 11:34:20;;;;;;;3.25;2.15;;;10.30;71.30;;;;;;5039881;28;20029;-75
2021/03/16 11:36:46;;;;;;;8.60;2.38;;;10.40;70.00;;;;;;5043903;28;20029;-74
2021/03/16 11:39:11;;;;;;;3.47;2.00;;;10.30;69.30;;;;;;5057550;28;20059;-75
2021/03/16 11:41:37;;;;;;;4.28;2.05;;;10.30;70.30;;;;;;5047359;28;20417;-75
2021/03/16 11:44:03;;;;;;;3.63;2.30;;;10.30;70.40;;;;;;5050929;28;20418;-75
2021/03/16 11:46:28;;;;;;;4.35;2.33;;;10.40;69.10;;;;;;5047850;28;20024;-75
2021/03/16 11:48:54;;;;;;;3.10;2.10;;;10.20;67.90;;;;;;5049431;28;20031;-75
2021/03/16 11:51:19;;;;;;;4.68;1.90;;;10.20;69.20;;;;;;5045049;28;20072;-81
2021/03/16 11:53:45;;;;;;;3.92;2.20;;;10.30;69.40;;;;;;5052095;28;20029;-83
2021/03/16 11:56:10;;;;;;;4.20;1.80;;;10.40;69.60;;;;;;5052476;28;20111;-82
2021/03/16 11:58:36;;;;;;;5.13;2.40;;;10.40;67.70;;;;;;5048880;28;20040;-83
2021/03/16 12:01:02;;;;;;;4.63;2.20;;;10.40;67.50;;;;;;5054279;28;20026;-82
2021/03/16 12:03:28;;;;;;;3.97;2.15;;;10.40;68.60;;;;;;5053920;28;20033;-83
2021/03/16 12:05:54;;;;;;;4.97;2.30;;;10.40;67.70;;;;;;5050329;28;20017;-83
2021/03/16 12:08:20;;;;;;;3.13;2.00;;;10.40;68.20;;;;;;5051521;28;20465;-79
2021/03/16 12:10:46;;;;;;;3.92;2.05;;;10.40;68.90;;;;;;5047529;28;20024;-69
2021/03/16 12:13:11;;;;;;;4.80;2.30;;;10.50;67.60;;;;;;5048611;28;20048;-71
2021/03/16 12:15:37;;;;;;;5.88;3.00;;;10.60;69.00;;;;;;5053579;28;20024;-76
2021/03/16 12:18:02;;;;;;;9.05;2.95;;;10.60;68.40;;;;;;5050065;28;20040;-74
2021/03/16 12:20:28;;;;;;;6.57;2.33;;;10.70;68.80;;;;;;5044461;28;20110;-73
2021/03/16 12:22:55;;;;;;;6.97;3.08;;;10.80;68.50;;;;;;5046719;28;20435;-72
2021/03/16 12:25:21;;;;;;;5.75;3.17;;;10.70;67.10;;;;;;5044320;28;20032;-75
2021/03/16 12:27:46;;;;;;;4.78;2.40;;;10.60;67.40;;;;;;5049191;28;20631;-72
2021/03/16 12:30:13;;;;;;;5.43;2.65;;;10.50;68.10;;;;;;5048313;28;20029;-74
2021/03/16 12:32:38;;;;;;;5.28;2.95;;;10.60;68.20;;;;;;5045896;28;20106;-72
2021/03/16 12:35:12;;;;;;;7.00;2.92;;;10.60;68.30;;;;;;5045761;28;20024;-76
2021/03/16 12:37:39;;;;;;;7.50;3.80;;;10.50;68.50;;;;;;5055676;28;20040;-72
2021/03/16 12:40:06;;;;;;;5.30;2.80;;;10.50;69.10;;;;;;5044205;28;20043;-73
2021/03/16 12:42:33;;;;;;;5.95;3.58;;;10.50;69.10;;;;;;5047110;28;20438;-74
2021/03/16 12:44:58;;;;;;;4.68;2.95;;;10.50;67.70;;;;;;5052174;28;20032;-77
2021/03/16 12:47:25;;;;;;;4.93;2.80;;;10.30;66.90;;;;;;5046570;28;20106;-77
2021/03/16 12:49:51;;;;;;;9.05;3.60;;;10.10;68.30;;;;;;5041796;28;20058;-75
2021/03/16 12:52:17;;;;;;;4.55;3.05;;;10.10;69.20;;;;;;5043020;28;20037;-75
2021/03/16 12:54:43;;;;;;;8.50;3.55;;;10.10;69.70;;;;;;5043971;28;20020;-78
2021/03/16 12:57:08;;;;;;;4.95;2.75;;;10.10;69.60;;;;;;5047615;28;20393;-75
2021/03/16 12:59:34;;;;;;;5.63;2.92;;;10.10;69.50;;;;;;5049084;28;20029;-76